sensor_id;sensor_type;location;lat;lon;timestamp;P1;durP1;ratioP1;P2;durP2;ratioP2
16037;SDS011;8123;50.906;6.172;2023-07-13T00:02:14;11.20;;;2.97;;
16037;SDS011;8123;50.906;6.172;2023-07-13T00:04:40;6.10;;;3.00;;
16037;SDS011;8123;50.906;6.172;2023-07-13T00:07:07;9.73;;;2.50;;
16037;SDS011;8123;50.906;6.172;2023-07-13T00:09:33;8.70;;;2.23;;
16037;SDS011;8123;50.906;6.172;2023-07-13T00:11:59;8.37;;;2.87;;
16037;SDS011;8123;50.906;6.172;2023-07-13T00:14:25;7.40;;;3.10;;
16037;SDS011;8123;50.906;6.172;2023-07-13T00:16:52;8.67;;;2.83;;
16037;SDS011;8123;50.906;6.172;2023-07-13T00:19:18;6.87;;;3.30;;
16037;SDS011;8123;50.906;6.172;2023-07-13T00:21:44;5.10;;;2.90;;
16037;SDS011;8123;50.906;6.172;2023-07-13T00:24:11;8.20;;;3.07;;
16037;SDS011;8123;50.906;6.172;2023-07-13T00:26:39;5.83;;;3.00;;
16037;SDS011;8123;50.906;6.172;2023-07-13T00:29:05;31.97;;;4.33;;
16037;SDS011;8123;50.906;6.172;2023-07-13T00:31:34;5.17;;;2.43;;
16037;SDS011;8123;50.906;6.172;2023-07-13T00:34:00;4.87;;;2.57;;
16037;SDS011;8123;50.906;6.172;2023-07-13T00:36:26;7.70;;;2.60;;
16037;SDS011;8123;50.906;6.172;2023-07-13T00:38:51;8.47;;;2.30;;
16037;SDS011;8123;50.906;6.172;2023-07-13T00:41:17;4.80;;;2.43;;
16037;SDS011;8123;50.906;6.172;2023-07-13T00:43:43;4.50;;;2.20;;
16037;SDS011;8123;50.906;6.172;2023-07-13T00:46:14;5.47;;;2.13;;
16037;SDS011;8123;50.906;6.172;2023-07-13T00:48:45;4.77;;;2.07;;
16037;SDS011;8123;50.906;6.172;2023-07-13T00:51:13;5.77;;;2.10;;
16037;SDS011;8123;50.906;6.172;2023-07-13T00:53:42;6.67;;;2.20;;
16037;SDS011;8123;50.906;6.172;2023-07-13T00:56:09;13.30;;;2.90;;
16037;SDS011;8123;50.906;6.172;2023-07-13T00:58:35;6.17;;;2.60;;
16037;SDS011;8123;50.906;6.172;2023-07-13T01:01:01;3.30;;;2.57;;
16037;SDS011;8123;50.906;6.172;2023-07-13T01:03:27;6.87;;;2.40;;
16037;SDS011;8123;50.906;6.172;2023-07-13T01:05:53;6.30;;;3.07;;
16037;SDS011;8123;50.906;6.172;2023-07-13T01:08:19;10.43;;;2.87;;
16037;SDS011;8123;50.906;6.172;2023-07-13T01:10:56;3.97;;;2.67;;
16037;SDS011;8123;50.906;6.172;2023-07-13T01:13:23;7.07;;;2.30;;
16037;SDS011;8123;50.906;6.172;2023-07-13T01:15:49;7.23;;;2.20;;
16037;SDS011;8123;50.906;6.172;2023-07-13T01:18:21;5.97;;;2.17;;
16037;SDS011;8123;50.906;6.172;2023-07-13T01:23:24;5.53;;;2.47;;
16037;SDS011;8123;50.906;6.172;2023-07-13T01:25:51;12.07;;;3.10;;
16037;SDS011;8123;50.906;6.172;2023-07-13T01:28:17;9.73;;;3.07;;
16037;SDS011;8123;50.906;6.172;2023-07-13T01:30:45;7.80;;;2.87;;
16037;SDS011;8123;50.906;6.172;2023-07-13T01:33:12;4.53;;;2.40;;
16037;SDS011;8123;50.906;6.172;2023-07-13T01:35:40;2.97;;;2.20;;
16037;SDS011;8123;50.906;6.172;2023-07-13T01:38:06;5.03;;;2.10;;
16037;SDS011;8123;50.906;6.172;2023-07-13T01:40:33;6.33;;;2.87;;
16037;SDS011;8123;50.906;6.172;2023-07-13T01:42:59;6.63;;;2.80;;
16037;SDS011;8123;50.906;6.172;2023-07-13T01:45:25;6.10;;;2.43;;
16037;SDS011;8123;50.906;6.172;2023-07-13T01:47:51;8.53;;;2.30;;
16037;SDS011;8123;50.906;6.172;2023-07-13T01:50:17;8.20;;;2.67;;
16037;SDS011;8123;50.906;6.172;2023-07-13T01:52:42;9.50;;;2.57;;
16037;SDS011;8123;50.906;6.172;2023-07-13T01:55:08;10.60;;;2.40;;
16037;SDS011;8123;50.906;6.172;2023-07-13T01:57:34;13.13;;;4.43;;
16037;SDS011;8123;50.906;6.172;2023-07-13T02:00:02;13.40;;;3.03;;
16037;SDS011;8123;50.906;6.172;2023-07-13T02:02:31;4.80;;;2.40;;
16037;SDS011;8123;50.906;6.172;2023-07-13T02:04:57;8.60;;;2.83;;
16037;SDS011;8123;50.906;6.172;2023-07-13T02:07:23;6.50;;;2.40;;
16037;SDS011;8123;50.906;6.172;2023-07-13T02:09:48;7.93;;;2.80;;
16037;SDS011;8123;50.906;6.172;2023-07-13T02:12:14;8.23;;;2.27;;
16037;SDS011;8123;50.906;6.172;2023-07-13T02:14:39;5.93;;;2.50;;
16037;SDS011;8123;50.906;6.172;2023-07-13T02:17:05;7.90;;;2.73;;
16037;SDS011;8123;50.906;6.172;2023-07-13T02:19:31;7.60;;;2.57;;
16037;SDS011;8123;50.906;6.172;2023-07-13T02:21:57;9.97;;;2.70;;
16037;SDS011;8123;50.906;6.172;2023-07-13T02:24:23;4.23;;;2.50;;
16037;SDS011;8123;50.906;6.172;2023-07-13T02:26:48;14.97;;;3.53;;
16037;SDS011;8123;50.906;6.172;2023-07-13T02:29:14;5.93;;;2.03;;
16037;SDS011;8123;50.906;6.172;2023-07-13T02:31:40;7.57;;;3.00;;
16037;SDS011;8123;50.906;6.172;2023-07-13T02:34:05;11.47;;;2.90;;
16037;SDS011;8123;50.906;6.172;2023-07-13T02:36:31;8.37;;;2.43;;
16037;SDS011;8123;50.906;6.172;2023-07-13T02:39:00;2.97;;;2.43;;
16037;SDS011;8123;50.906;6.172;2023-07-13T02:41:27;4.03;;;2.00;;
16037;SDS011;8123;50.906;6.172;2023-07-13T02:43:53;18.40;;;2.43;;
16037;SDS011;8123;50.906;6.172;2023-07-13T02:46:21;3.87;;;2.57;;
16037;SDS011;8123;50.906;6.172;2023-07-13T02:48:49;6.20;;;2.60;;
16037;SDS011;8123;50.906;6.172;2023-07-13T02:51:14;7.60;;;4.33;;
16037;SDS011;8123;50.906;6.172;2023-07-13T02:53:40;7.27;;;2.77;;
16037;SDS011;8123;50.906;6.172;2023-07-13T02:56:06;7.60;;;2.67;;
16037;SDS011;8123;50.906;6.172;2023-07-13T02:58:32;12.77;;;3.50;;
16037;SDS011;8123;50.906;6.172;2023-07-13T03:01:05;6.00;;;2.80;;
16037;SDS011;8123;50.906;6.172;2023-07-13T03:03:35;4.60;;;2.03;;
16037;SDS011;8123;50.906;6.172;2023-07-13T03:06:01;6.63;;;2.90;;
16037;SDS011;8123;50.906;6.172;2023-07-13T03:08:28;12.33;;;2.67;;
16037;SDS011;8123;50.906;6.172;2023-07-13T03:13:52;5.97;;;2.67;;
16037;SDS011;8123;50.906;6.172;2023-07-13T03:16:18;7.50;;;2.60;;
16037;SDS011;8123;50.906;6.172;2023-07-13T03:18:44;10.63;;;3.10;;
16037;SDS011;8123;50.906;6.172;2023-07-13T03:21:11;11.63;;;2.80;;
16037;SDS011;8123;50.906;6.172;2023-07-13T03:23:36;16.53;;;3.40;;
16037;SDS011;8123;50.906;6.172;2023-07-13T03:26:03;6.00;;;2.67;;
16037;SDS011;8123;50.906;6.172;2023-07-13T03:28:31;4.90;;;3.10;;
16037;SDS011;8123;50.906;6.172;2023-07-13T03:31:03;4.53;;;2.60;;
16037;SDS011;8123;50.906;6.172;2023-07-13T03:33:37;8.53;;;2.80;;
16037;SDS011;8123;50.906;6.172;2023-07-13T03:36:03;7.67;;;2.60;;
16037;SDS011;8123;50.906;6.172;2023-07-13T03:38:30;4.70;;;2.90;;
16037;SDS011;8123;50.906;6.172;2023-07-13T03:40:57;4.97;;;3.57;;
16037;SDS011;8123;50.906;6.172;2023-07-13T03:43:22;7.80;;;3.33;;
16037;SDS011;8123;50.906;6.172;2023-07-13T03:45:48;5.50;;;2.37;;
16037;SDS011;8123;50.906;6.172;2023-07-13T03:48:14;9.33;;;3.10;;
16037;SDS011;8123;50.906;6.172;2023-07-13T03:50:40;10.03;;;2.90;;
16037;SDS011;8123;50.906;6.172;2023-07-13T03:53:06;3.70;;;2.67;;
16037;SDS011;8123;50.906;6.172;2023-07-13T03:55:32;9.23;;;3.17;;
16037;SDS011;8123;50.906;6.172;2023-07-13T03:57:58;7.40;;;2.50;;
16037;SDS011;8123;50.906;6.172;2023-07-13T04:00:25;10.53;;;3.17;;
16037;SDS011;8123;50.906;6.172;2023-07-13T04:02:51;8.60;;;2.77;;
16037;SDS011;8123;50.906;6.172;2023-07-13T04:05:17;6.90;;;2.30;;
16037;SDS011;8123;50.906;6.172;2023-07-13T04:07:43;3.10;;;2.40;;
16037;SDS011;8123;50.906;6.172;2023-07-13T04:10:09;4.97;;;2.70;;
16037;SDS011;8123;50.906;6.172;2023-07-13T04:12:35;6.23;;;3.63;;
16037;SDS011;8123;50.906;6.172;2023-07-13T04:15:01;9.20;;;2.83;;
16037;SDS011;8123;50.906;6.172;2023-07-13T04:17:26;7.30;;;2.70;;
16037;SDS011;8123;50.906;6.172;2023-07-13T04:19:52;12.43;;;2.60;;
16037;SDS011;8123;50.906;6.172;2023-07-13T04:22:17;9.93;;;2.87;;
16037;SDS011;8123;50.906;6.172;2023-07-13T04:24:43;4.27;;;2.60;;
16037;SDS011;8123;50.906;6.172;2023-07-13T04:27:09;9.63;;;2.63;;
16037;SDS011;8123;50.906;6.172;2023-07-13T04:29:34;11.53;;;2.70;;
16037;SDS011;8123;50.906;6.172;2023-07-13T04:32:00;6.67;;;2.73;;
16037;SDS011;8123;50.906;6.172;2023-07-13T04:34:26;6.33;;;2.60;;
16037;SDS011;8123;50.906;6.172;2023-07-13T04:36:51;8.47;;;2.77;;
16037;SDS011;8123;50.906;6.172;2023-07-13T04:39:17;7.63;;;2.77;;
16037;SDS011;8123;50.906;6.172;2023-07-13T04:41:43;5.67;;;2.43;;
16037;SDS011;8123;50.906;6.172;2023-07-13T04:44:08;9.33;;;3.67;;
16037;SDS011;8123;50.906;6.172;2023-07-13T04:46:34;8.80;;;3.03;;
16037;SDS011;8123;50.906;6.172;2023-07-13T04:48:59;8.70;;;2.70;;
16037;SDS011;8123;50.906;6.172;2023-07-13T04:51:25;21.27;;;3.73;;
16037;SDS011;8123;50.906;6.172;2023-07-13T04:53:51;11.43;;;3.10;;
16037;SDS011;8123;50.906;6.172;2023-07-13T04:56:17;11.50;;;3.70;;
16037;SDS011;8123;50.906;6.172;2023-07-13T04:58:44;8.60;;;3.40;;
16037;SDS011;8123;50.906;6.172;2023-07-13T05:01:10;5.03;;;2.50;;
16037;SDS011;8123;50.906;6.172;2023-07-13T05:03:36;8.93;;;2.60;;
16037;SDS011;8123;50.906;6.172;2023-07-13T05:06:03;5.97;;;2.73;;
16037;SDS011;8123;50.906;6.172;2023-07-13T05:08:31;7.93;;;3.30;;
16037;SDS011;8123;50.906;6.172;2023-07-13T05:10:59;12.30;;;2.57;;
16037;SDS011;8123;50.906;6.172;2023-07-13T05:13:25;5.53;;;2.77;;
16037;SDS011;8123;50.906;6.172;2023-07-13T05:15:58;16.10;;;3.37;;
16037;SDS011;8123;50.906;6.172;2023-07-13T05:18:25;6.30;;;3.17;;
16037;SDS011;8123;50.906;6.172;2023-07-13T05:20:59;9.60;;;3.00;;
16037;SDS011;8123;50.906;6.172;2023-07-13T05:23:29;7.60;;;3.00;;
16037;SDS011;8123;50.906;6.172;2023-07-13T05:25:56;6.63;;;2.70;;
16037;SDS011;8123;50.906;6.172;2023-07-13T05:28:22;8.70;;;2.50;;
16037;SDS011;8123;50.906;6.172;2023-07-13T05:30:50;6.70;;;3.30;;
16037;SDS011;8123;50.906;6.172;2023-07-13T05:33:16;8.00;;;3.07;;
16037;SDS011;8123;50.906;6.172;2023-07-13T05:35:42;8.13;;;3.30;;
16037;SDS011;8123;50.906;6.172;2023-07-13T05:38:08;16.63;;;3.93;;
16037;SDS011;8123;50.906;6.172;2023-07-13T05:40:34;6.73;;;3.37;;
16037;SDS011;8123;50.906;6.172;2023-07-13T05:42:59;6.90;;;3.30;;
16037;SDS011;8123;50.906;6.172;2023-07-13T05:45:25;5.83;;;2.90;;
16037;SDS011;8123;50.906;6.172;2023-07-13T05:47:51;14.73;;;3.33;;
16037;SDS011;8123;50.906;6.172;2023-07-13T05:50:17;6.60;;;3.00;;
16037;SDS011;8123;50.906;6.172;2023-07-13T05:52:43;10.80;;;3.47;;
16037;SDS011;8123;50.906;6.172;2023-07-13T05:55:08;10.10;;;3.80;;
16037;SDS011;8123;50.906;6.172;2023-07-13T05:57:34;4.80;;;2.80;;
16037;SDS011;8123;50.906;6.172;2023-07-13T06:00:00;19.53;;;4.30;;
16037;SDS011;8123;50.906;6.172;2023-07-13T06:02:25;10.43;;;3.60;;
16037;SDS011;8123;50.906;6.172;2023-07-13T06:04:52;11.30;;;4.33;;
16037;SDS011;8123;50.906;6.172;2023-07-13T06:07:18;13.37;;;3.43;;
16037;SDS011;8123;50.906;6.172;2023-07-13T06:09:43;11.53;;;4.03;;
16037;SDS011;8123;50.906;6.172;2023-07-13T06:12:09;10.87;;;3.60;;
16037;SDS011;8123;50.906;6.172;2023-07-13T06:14:35;12.10;;;4.33;;
16037;SDS011;8123;50.906;6.172;2023-07-13T06:17:00;11.97;;;3.80;;
16037;SDS011;8123;50.906;6.172;2023-07-13T06:19:26;7.10;;;3.10;;
16037;SDS011;8123;50.906;6.172;2023-07-13T06:21:52;13.27;;;3.57;;
16037;SDS011;8123;50.906;6.172;2023-07-13T06:24:17;8.60;;;3.47;;
16037;SDS011;8123;50.906;6.172;2023-07-13T06:26:43;10.40;;;3.50;;
16037;SDS011;8123;50.906;6.172;2023-07-13T06:29:08;11.87;;;3.40;;
16037;SDS011;8123;50.906;6.172;2023-07-13T06:31:34;11.00;;;4.10;;
16037;SDS011;8123;50.906;6.172;2023-07-13T06:34:00;9.30;;;3.97;;
16037;SDS011;8123;50.906;6.172;2023-07-13T06:36:25;8.57;;;4.23;;
16037;SDS011;8123;50.906;6.172;2023-07-13T06:38:51;14.57;;;4.87;;
16037;SDS011;8123;50.906;6.172;2023-07-13T06:41:16;11.57;;;3.70;;
16037;SDS011;8123;50.906;6.172;2023-07-13T06:43:42;14.80;;;4.70;;
16037;SDS011;8123;50.906;6.172;2023-07-13T06:46:08;11.93;;;4.17;;
16037;SDS011;8123;50.906;6.172;2023-07-13T06:48:34;12.00;;;4.20;;
16037;SDS011;8123;50.906;6.172;2023-07-13T06:51:01;24.50;;;4.53;;
16037;SDS011;8123;50.906;6.172;2023-07-13T06:53:27;12.73;;;3.57;;
16037;SDS011;8123;50.906;6.172;2023-07-13T06:55:53;9.20;;;4.03;;
16037;SDS011;8123;50.906;6.172;2023-07-13T06:58:18;22.57;;;5.63;;
16037;SDS011;8123;50.906;6.172;2023-07-13T07:00:44;10.17;;;3.70;;
16037;SDS011;8123;50.906;6.172;2023-07-13T07:03:10;21.07;;;4.30;;
16037;SDS011;8123;50.906;6.172;2023-07-13T07:05:36;18.10;;;5.47;;
16037;SDS011;8123;50.906;6.172;2023-07-13T07:08:02;12.53;;;3.97;;
16037;SDS011;8123;50.906;6.172;2023-07-13T07:10:29;11.50;;;4.73;;
16037;SDS011;8123;50.906;6.172;2023-07-13T07:12:55;17.63;;;4.30;;
16037;SDS011;8123;50.906;6.172;2023-07-13T07:15:21;20.63;;;5.27;;
16037;SDS011;8123;50.906;6.172;2023-07-13T07:17:46;16.13;;;4.77;;
16037;SDS011;8123;50.906;6.172;2023-07-13T07:20:12;11.60;;;3.80;;
16037;SDS011;8123;50.906;6.172;2023-07-13T07:22:38;12.17;;;4.03;;
16037;SDS011;8123;50.906;6.172;2023-07-13T07:25:04;19.70;;;6.23;;
16037;SDS011;8123;50.906;6.172;2023-07-13T07:27:29;15.53;;;4.73;;
16037;SDS011;8123;50.906;6.172;2023-07-13T07:29:55;17.73;;;5.17;;
16037;SDS011;8123;50.906;6.172;2023-07-13T07:32:22;11.20;;;3.93;;
16037;SDS011;8123;50.906;6.172;2023-07-13T07:34:48;8.77;;;4.40;;
16037;SDS011;8123;50.906;6.172;2023-07-13T07:37:14;18.27;;;4.47;;
16037;SDS011;8123;50.906;6.172;2023-07-13T07:39:40;20.63;;;4.90;;
16037;SDS011;8123;50.906;6.172;2023-07-13T07:42:07;8.63;;;4.17;;
16037;SDS011;8123;50.906;6.172;2023-07-13T07:44:33;13.53;;;4.30;;
16037;SDS011;8123;50.906;6.172;2023-07-13T07:47:00;6.47;;;3.50;;
16037;SDS011;8123;50.906;6.172;2023-07-13T07:49:25;18.13;;;4.90;;
16037;SDS011;8123;50.906;6.172;2023-07-13T07:51:51;8.47;;;3.97;;
16037;SDS011;8123;50.906;6.172;2023-07-13T07:54:17;12.77;;;4.50;;
16037;SDS011;8123;50.906;6.172;2023-07-13T07:56:43;18.03;;;4.33;;
16037;SDS011;8123;50.906;6.172;2023-07-13T07:59:08;12.67;;;4.03;;
16037;SDS011;8123;50.906;6.172;2023-07-13T08:01:34;14.77;;;4.27;;
16037;SDS011;8123;50.906;6.172;2023-07-13T08:04:00;11.27;;;3.77;;
16037;SDS011;8123;50.906;6.172;2023-07-13T08:06:25;7.67;;;4.53;;
16037;SDS011;8123;50.906;6.172;2023-07-13T08:08:52;10.90;;;3.77;;
16037;SDS011;8123;50.906;6.172;2023-07-13T08:11:18;13.50;;;4.10;;
16037;SDS011;8123;50.906;6.172;2023-07-13T08:13:43;7.83;;;3.83;;
16037;SDS011;8123;50.906;6.172;2023-07-13T08:16:10;9.70;;;4.47;;
16037;SDS011;8123;50.906;6.172;2023-07-13T08:18:36;7.17;;;3.70;;
16037;SDS011;8123;50.906;6.172;2023-07-13T08:21:05;11.03;;;3.70;;
16037;SDS011;8123;50.906;6.172;2023-07-13T08:23:32;12.57;;;4.17;;
16037;SDS011;8123;50.906;6.172;2023-07-13T08:25:58;8.50;;;4.53;;
16037;SDS011;8123;50.906;6.172;2023-07-13T08:28:26;15.23;;;4.10;;
16037;SDS011;8123;50.906;6.172;2023-07-13T08:30:52;9.23;;;4.03;;
16037;SDS011;8123;50.906;6.172;2023-07-13T08:33:18;9.20;;;4.07;;
16037;SDS011;8123;50.906;6.172;2023-07-13T08:35:48;8.90;;;3.57;;
16037;SDS011;8123;50.906;6.172;2023-07-13T08:38:14;13.37;;;4.00;;
16037;SDS011;8123;50.906;6.172;2023-07-13T08:40:41;9.17;;;3.97;;
16037;SDS011;8123;50.906;6.172;2023-07-13T08:43:17;13.33;;;4.80;;
16037;SDS011;8123;50.906;6.172;2023-07-13T08:45:52;13.60;;;3.60;;
16037;SDS011;8123;50.906;6.172;2023-07-13T08:48:22;7.97;;;3.90;;
16037;SDS011;8123;50.906;6.172;2023-07-13T08:51:00;16.10;;;4.10;;
16037;SDS011;8123;50.906;6.172;2023-07-13T08:53:43;5.57;;;3.30;;
16037;SDS011;8123;50.906;6.172;2023-07-13T08:56:19;10.03;;;4.03;;
16037;SDS011;8123;50.906;6.172;2023-07-13T08:58:49;12.17;;;3.60;;
16037;SDS011;8123;50.906;6.172;2023-07-13T09:01:33;8.00;;;4.03;;
16037;SDS011;8123;50.906;6.172;2023-07-13T09:04:13;10.77;;;4.30;;
16037;SDS011;8123;50.906;6.172;2023-07-13T09:06:48;18.10;;;4.57;;
16037;SDS011;8123;50.906;6.172;2023-07-13T09:17:18;9.80;;;4.23;;
16037;SDS011;8123;50.906;6.172;2023-07-13T09:20:00;11.83;;;3.90;;
16037;SDS011;8123;50.906;6.172;2023-07-13T09:22:35;10.40;;;3.70;;
16037;SDS011;8123;50.906;6.172;2023-07-13T09:25:10;14.33;;;3.83;;
16037;SDS011;8123;50.906;6.172;2023-07-13T09:30:55;5.77;;;3.40;;
16037;SDS011;8123;50.906;6.172;2023-07-13T09:33:42;9.97;;;4.83;;
16037;SDS011;8123;50.906;6.172;2023-07-13T09:38:49;15.20;;;3.83;;
16037;SDS011;8123;50.906;6.172;2023-07-13T09:44:29;12.97;;;4.07;;
16037;SDS011;8123;50.906;6.172;2023-07-13T09:46:58;6.83;;;4.27;;
16037;SDS011;8123;50.906;6.172;2023-07-13T09:49:28;19.47;;;3.70;;
16037;SDS011;8123;50.906;6.172;2023-07-13T09:51:59;13.10;;;3.77;;
16037;SDS011;8123;50.906;6.172;2023-07-13T09:54:28;7.93;;;3.30;;
16037;SDS011;8123;50.906;6.172;2023-07-13T09:56:58;9.03;;;3.30;;
16037;SDS011;8123;50.906;6.172;2023-07-13T09:59:27;12.13;;;3.63;;
16037;SDS011;8123;50.906;6.172;2023-07-13T10:01:55;26.67;;;4.10;;
16037;SDS011;8123;50.906;6.172;2023-07-13T10:04:26;8.90;;;3.23;;
16037;SDS011;8123;50.906;6.172;2023-07-13T10:07:05;10.30;;;3.80;;
16037;SDS011;8123;50.906;6.172;2023-07-13T10:09:32;9.77;;;3.63;;
16037;SDS011;8123;50.906;6.172;2023-07-13T10:11:58;18.40;;;3.47;;
16037;SDS011;8123;50.906;6.172;2023-07-13T10:14:24;11.83;;;3.60;;
16037;SDS011;8123;50.906;6.172;2023-07-13T10:16:52;7.60;;;2.70;;
16037;SDS011;8123;50.906;6.172;2023-07-13T10:19:29;15.43;;;3.83;;
16037;SDS011;8123;50.906;6.172;2023-07-13T10:22:01;9.00;;;3.37;;
16037;SDS011;8123;50.906;6.172;2023-07-13T10:24:33;8.27;;;3.23;;
16037;SDS011;8123;50.906;6.172;2023-07-13T10:32:34;12.57;;;2.77;;
16037;SDS011;8123;50.906;6.172;2023-07-13T10:35:01;11.43;;;3.10;;
16037;SDS011;8123;50.906;6.172;2023-07-13T10:37:33;8.10;;;3.30;;
16037;SDS011;8123;50.906;6.172;2023-07-13T10:40:06;4.97;;;3.60;;
16037;SDS011;8123;50.906;6.172;2023-07-13T10:42:39;4.20;;;2.60;;
16037;SDS011;8123;50.906;6.172;2023-07-13T10:45:16;9.40;;;3.37;;
16037;SDS011;8123;50.906;6.172;2023-07-13T10:47:43;8.10;;;3.20;;
16037;SDS011;8123;50.906;6.172;2023-07-13T10:50:28;4.20;;;2.70;;
16037;SDS011;8123;50.906;6.172;2023-07-13T10:53:02;9.43;;;3.20;;
16037;SDS011;8123;50.906;6.172;2023-07-13T10:58:19;5.60;;;2.50;;
16037;SDS011;8123;50.906;6.172;2023-07-13T11:00:51;11.20;;;2.43;;
16037;SDS011;8123;50.906;6.172;2023-07-13T11:03:31;7.00;;;2.80;;
16037;SDS011;8123;50.906;6.172;2023-07-13T11:18:50;7.77;;;3.07;;
16037;SDS011;8123;50.906;6.172;2023-07-13T11:21:26;7.23;;;2.70;;
16037;SDS011;8123;50.906;6.172;2023-07-13T11:23:54;4.83;;;2.40;;
16037;SDS011;8123;50.906;6.172;2023-07-13T11:31:53;6.33;;;3.07;;
16037;SDS011;8123;50.906;6.172;2023-07-13T11:34:25;8.00;;;2.60;;
16037;SDS011;8123;50.906;6.172;2023-07-13T11:36:54;5.97;;;2.60;;
16037;SDS011;8123;50.906;6.172;2023-07-13T11:39:24;7.27;;;2.63;;
16037;SDS011;8123;50.906;6.172;2023-07-13T11:41:57;4.80;;;2.53;;
16037;SDS011;8123;50.906;6.172;2023-07-13T11:44:27;11.53;;;3.23;;
16037;SDS011;8123;50.906;6.172;2023-07-13T11:46:58;3.70;;;2.50;;
16037;SDS011;8123;50.906;6.172;2023-07-13T11:49:26;3.47;;;1.93;;
16037;SDS011;8123;50.906;6.172;2023-07-13T11:51:54;3.73;;;2.43;;
16037;SDS011;8123;50.906;6.172;2023-07-13T11:56:51;6.20;;;2.43;;
16037;SDS011;8123;50.906;6.172;2023-07-13T11:59:17;8.80;;;2.20;;
16037;SDS011;8123;50.906;6.172;2023-07-13T12:01:44;2.80;;;2.33;;
16037;SDS011;8123;50.906;6.172;2023-07-13T12:04:28;9.37;;;2.57;;
16037;SDS011;8123;50.906;6.172;2023-07-13T12:07:03;3.60;;;2.40;;
16037;SDS011;8123;50.906;6.172;2023-07-13T12:09:31;5.63;;;2.30;;
16037;SDS011;8123;50.906;6.172;2023-07-13T12:12:01;9.93;;;2.87;;
16037;SDS011;8123;50.906;6.172;2023-07-13T12:14:27;9.40;;;3.70;;
16037;SDS011;8123;50.906;6.172;2023-07-13T12:16:53;9.63;;;4.10;;
16037;SDS011;8123;50.906;6.172;2023-07-13T12:19:25;3.23;;;2.10;;
16037;SDS011;8123;50.906;6.172;2023-07-13T12:21:53;2.90;;;2.10;;
16037;SDS011;8123;50.906;6.172;2023-07-13T12:24:21;7.93;;;2.40;;
16037;SDS011;8123;50.906;6.172;2023-07-13T12:26:52;9.47;;;2.20;;
16037;SDS011;8123;50.906;6.172;2023-07-13T12:29:18;4.27;;;2.17;;
16037;SDS011;8123;50.906;6.172;2023-07-13T12:31:45;4.60;;;1.83;;
16037;SDS011;8123;50.906;6.172;2023-07-13T12:34:13;2.30;;;1.83;;
16037;SDS011;8123;50.906;6.172;2023-07-13T12:36:51;3.90;;;1.80;;
16037;SDS011;8123;50.906;6.172;2023-07-13T12:39:22;5.40;;;2.13;;
16037;SDS011;8123;50.906;6.172;2023-07-13T12:45:38;6.93;;;2.43;;
16037;SDS011;8123;50.906;6.172;2023-07-13T12:47:52;5.67;;;2.30;;
16037;SDS011;8123;50.906;6.172;2023-07-13T12:50:34;5.13;;;1.80;;
16037;SDS011;8123;50.906;6.172;2023-07-13T12:53:09;6.67;;;2.97;;
16037;SDS011;8123;50.906;6.172;2023-07-13T12:55:46;4.73;;;2.50;;
16037;SDS011;8123;50.906;6.172;2023-07-13T12:58:25;3.87;;;2.10;;
16037;SDS011;8123;50.906;6.172;2023-07-13T13:01:02;5.10;;;2.40;;
16037;SDS011;8123;50.906;6.172;2023-07-13T13:03:32;5.40;;;1.90;;
16037;SDS011;8123;50.906;6.172;2023-07-13T13:06:04;5.90;;;2.27;;
16037;SDS011;8123;50.906;6.172;2023-07-13T13:08:34;6.23;;;2.10;;
16037;SDS011;8123;50.906;6.172;2023-07-13T13:11:01;5.20;;;3.00;;
16037;SDS011;8123;50.906;6.172;2023-07-13T13:13:27;4.50;;;2.10;;
16037;SDS011;8123;50.906;6.172;2023-07-13T13:15:53;6.93;;;2.33;;
16037;SDS011;8123;50.906;6.172;2023-07-13T13:18:20;3.63;;;1.60;;
16037;SDS011;8123;50.906;6.172;2023-07-13T13:20:48;2.23;;;1.80;;
16037;SDS011;8123;50.906;6.172;2023-07-13T13:23:18;3.57;;;2.23;;
16037;SDS011;8123;50.906;6.172;2023-07-13T13:25:49;13.03;;;2.40;;
16037;SDS011;8123;50.906;6.172;2023-07-13T13:28:17;5.27;;;2.30;;
16037;SDS011;8123;50.906;6.172;2023-07-13T13:30:45;5.93;;;2.47;;
16037;SDS011;8123;50.906;6.172;2023-07-13T13:33:13;4.87;;;2.37;;
16037;SDS011;8123;50.906;6.172;2023-07-13T13:35:42;6.20;;;2.50;;
16037;SDS011;8123;50.906;6.172;2023-07-13T13:38:12;8.03;;;2.20;;
16037;SDS011;8123;50.906;6.172;2023-07-13T13:40:42;8.23;;;2.10;;
16037;SDS011;8123;50.906;6.172;2023-07-13T13:43:18;3.93;;;2.37;;
16037;SDS011;8123;50.906;6.172;2023-07-13T13:45:52;7.77;;;1.97;;
16037;SDS011;8123;50.906;6.172;2023-07-13T13:48:26;5.80;;;2.93;;
16037;SDS011;8123;50.906;6.172;2023-07-13T13:50:56;5.67;;;2.30;;
16037;SDS011;8123;50.906;6.172;2023-07-13T13:53:23;6.90;;;1.97;;
16037;SDS011;8123;50.906;6.172;2023-07-13T13:55:49;5.90;;;2.50;;
16037;SDS011;8123;50.906;6.172;2023-07-13T13:58:17;3.80;;;2.13;;
16037;SDS011;8123;50.906;6.172;2023-07-13T14:00:43;9.60;;;2.17;;
16037;SDS011;8123;50.906;6.172;2023-07-13T14:03:14;4.47;;;1.93;;
16037;SDS011;8123;50.906;6.172;2023-07-13T14:05:41;7.20;;;1.70;;
16037;SDS011;8123;50.906;6.172;2023-07-13T14:08:14;5.50;;;1.73;;
16037;SDS011;8123;50.906;6.172;2023-07-13T14:10:41;11.83;;;2.70;;
16037;SDS011;8123;50.906;6.172;2023-07-13T14:13:14;2.23;;;1.80;;
16037;SDS011;8123;50.906;6.172;2023-07-13T14:15:42;4.87;;;1.83;;
16037;SDS011;8123;50.906;6.172;2023-07-13T14:18:08;8.40;;;2.10;;
16037;SDS011;8123;50.906;6.172;2023-07-13T14:20:34;11.63;;;2.20;;
16037;SDS011;8123;50.906;6.172;2023-07-13T14:22:59;1.90;;;1.80;;
16037;SDS011;8123;50.906;6.172;2023-07-13T14:25:25;2.30;;;1.73;;
16037;SDS011;8123;50.906;6.172;2023-07-13T14:27:55;3.40;;;1.70;;
16037;SDS011;8123;50.906;6.172;2023-07-13T14:30:32;4.70;;;2.10;;
16037;SDS011;8123;50.906;6.172;2023-07-13T14:32:58;5.13;;;2.10;;
16037;SDS011;8123;50.906;6.172;2023-07-13T14:35:24;10.13;;;2.13;;
16037;SDS011;8123;50.906;6.172;2023-07-13T14:37:50;11.73;;;1.80;;
16037;SDS011;8123;50.906;6.172;2023-07-13T14:40:17;2.37;;;1.80;;
16037;SDS011;8123;50.906;6.172;2023-07-13T14:42:49;3.83;;;2.17;;
16037;SDS011;8123;50.906;6.172;2023-07-13T14:45:15;5.87;;;2.07;;
16037;SDS011;8123;50.906;6.172;2023-07-13T14:47:42;3.10;;;1.73;;
16037;SDS011;8123;50.906;6.172;2023-07-13T14:50:13;4.20;;;1.90;;
16037;SDS011;8123;50.906;6.172;2023-07-13T14:52:45;8.30;;;2.17;;
16037;SDS011;8123;50.906;6.172;2023-07-13T14:55:13;3.47;;;2.00;;
16037;SDS011;8123;50.906;6.172;2023-07-13T14:57:40;2.97;;;1.70;;
16037;SDS011;8123;50.906;6.172;2023-07-13T15:00:13;5.50;;;2.60;;
16037;SDS011;8123;50.906;6.172;2023-07-13T15:02:40;10.03;;;2.83;;
16037;SDS011;8123;50.906;6.172;2023-07-13T15:07:40;5.53;;;2.90;;
16037;SDS011;8123;50.906;6.172;2023-07-13T15:10:19;6.97;;;2.50;;
16037;SDS011;8123;50.906;6.172;2023-07-13T15:12:47;4.70;;;2.40;;
16037;SDS011;8123;50.906;6.172;2023-07-13T15:15:13;7.73;;;3.00;;
16037;SDS011;8123;50.906;6.172;2023-07-13T15:20:11;8.70;;;2.23;;
16037;SDS011;8123;50.906;6.172;2023-07-13T15:22:41;6.47;;;2.80;;
16037;SDS011;8123;50.906;6.172;2023-07-13T15:25:11;8.20;;;2.70;;
16037;SDS011;8123;50.906;6.172;2023-07-13T15:27:41;5.90;;;2.70;;
16037;SDS011;8123;50.906;6.172;2023-07-13T15:30:07;7.33;;;2.63;;
16037;SDS011;8123;50.906;6.172;2023-07-13T15:32:34;6.17;;;2.23;;
16037;SDS011;8123;50.906;6.172;2023-07-13T15:34:59;4.80;;;2.83;;
16037;SDS011;8123;50.906;6.172;2023-07-13T15:37:25;5.13;;;2.87;;
16037;SDS011;8123;50.906;6.172;2023-07-13T15:39:50;6.20;;;2.70;;
16037;SDS011;8123;50.906;6.172;2023-07-13T15:42:16;4.87;;;2.53;;
16037;SDS011;8123;50.906;6.172;2023-07-13T15:44:44;4.20;;;2.83;;
16037;SDS011;8123;50.906;6.172;2023-07-13T15:47:14;3.50;;;2.90;;
16037;SDS011;8123;50.906;6.172;2023-07-13T15:49:41;6.07;;;3.03;;
16037;SDS011;8123;50.906;6.172;2023-07-13T15:52:17;7.13;;;2.90;;
16037;SDS011;8123;50.906;6.172;2023-07-13T15:54:46;2.87;;;2.60;;
16037;SDS011;8123;50.906;6.172;2023-07-13T15:57:13;7.20;;;2.67;;
16037;SDS011;8123;50.906;6.172;2023-07-13T15:59:39;4.43;;;2.70;;
16037;SDS011;8123;50.906;6.172;2023-07-13T16:02:18;7.27;;;2.70;;
16037;SDS011;8123;50.906;6.172;2023-07-13T16:04:45;8.70;;;2.80;;